| time (UTC) | temp C | wind direction | speed KPH | gust KPH | rain 1hr cm | rain 24hr cm | rain mn cm | humidity % | barometer mb |
| 20260509000544 | 13 | 182 | 6.4 | 12.9 | 0.05 | 0.28 | 0.23 | 96 | 1033.3 |
| 20260508235545 | 13 | 202 | 6.4 | 8.0 | 0.05 | 0.28 | 0.23 | 96 | 1033.4 |
| 20260508234544 | 13 | 202 | 3.2 | 12.9 | 0.08 | 0.28 | 0.23 | 96 | 1033.4 |
| 20260508233544 | 13 | 214 | 4.8 | 9.7 | 0.08 | 0.28 | 0.23 | 96 | 1033.4 |
| 20260508232542 | 13 | 202 | 6.4 | 11.3 | 0.08 | 0.28 | 0.23 | 96 | 1033.4 |
| 20260508231605 | 13 | 202 | 4.8 | 11.3 | 0.13 | 0.28 | 0.23 | 96 | 1033.3 |
| 20260508230532 | 13 | 202 | 4.8 | 8.0 | 0.08 | 0.23 | 0.20 | 96 | 1033.3 |
| 20260508225545 | 13 | 202 | 6.4 | 14.5 | 0.13 | 0.23 | 0.20 | 96 | 1033.2 |
| 20260508224544 | 13 | 202 | 4.8 | 12.9 | 0.08 | 0.20 | 0.15 | 96 | 1033.0 |
| 20260508223544 | 13 | 202 | 3.2 | 6.4 | 0.08 | 0.20 | 0.15 | 96 | 1032.9 |
| 20260508222544 | 12 | 202 | 6.4 | 11.3 | 0.13 | 0.20 | 0.15 | 96 | 1032.8 |
| 20260508221522 | 12 | 202 | 11.3 | 14.5 | 0.08 | 0.15 | 0.13 | 96 | 1032.8 |
| 20260508220605 | 13 | 206 | 11.3 | 16.1 | 0.08 | 0.15 | 0.13 | 96 | 1032.7 |
| 20260508215552 | 12 | 197 | 11.3 | 14.5 | 0.08 | 0.13 | 0.08 | 96 | 1032.7 |
| 20260508214545 | 12 | 202 | 17.7 | 22.5 | 0.08 | 0.13 | 0.08 | 96 | 1032.5 |
| 20260508213545 | 12 | 187 | 8.0 | 16.1 | 0.08 | 0.13 | 0.08 | 96 | 1032.5 |
| 20260508212604 | 12 | 214 | 11.3 | 14.5 | 0.05 | 0.08 | 0.05 | 96 | 1032.5 |
| 20260508211544 | 12 | 201 | 12.9 | 16.1 | 0.05 | 0.08 | 0.05 | 96 | 1032.4 |
| 20260508210522 | 12 | 220 | 14.5 | 16.1 | 0.05 | 0.08 | 0.05 | 96 | 1032.3 |
| 20260508205544 | 12 | 214 | 12.9 | 17.7 | 0.00 | 0.05 | 0.00 | 96 | 1032.2 |
| 20260508204713 | 12 | 206 | 11.3 | 17.7 | 0.00 | 0.05 | 0.00 | 96 | 1032.0 |
| 20260508203544 | 12 | 219 | 12.9 | 17.7 | 0.00 | 0.05 | 0.00 | 96 | 1032.0 |
| 20260508202544 | 12 | 213 | 14.5 | 19.3 | 0.00 | 0.05 | 0.00 | 96 | 1031.9 |
| 20260508201544 | 12 | 204 | 16.1 | 19.3 | 0.00 | 0.05 | 0.00 | 96 | 1031.7 |
| 20260508200544 | 12 | 211 | 16.1 | 19.3 | 0.00 | 0.05 | 0.00 | 95 | 1031.7 |
| 20260508195522 | 12 | 215 | 14.5 | 17.7 | 0.00 | 0.05 | 0.00 | 95 | 1031.7 |
| 20260508194544 | 12 | 214 | 12.9 | 19.3 | 0.00 | 0.05 | 0.00 | 95 | 1031.6 |
| 20260508193532 | 12 | 205 | 14.5 | 20.9 | 0.00 | 0.05 | 0.00 | 95 | 1031.6 |
| 20260508192544 | 12 | 204 | 14.5 | 19.3 | 0.00 | 0.05 | 0.00 | 95 | 1031.5 |
| 20260508191545 | 12 | 211 | 9.7 | 12.9 | 0.00 | 0.05 | 0.00 | 95 | 1031.4 |
| 20260508190544 | 12 | 205 | 14.5 | 17.7 | 0.00 | 0.05 | 0.00 | 95 | 1031.4 |
| 20260508185544 | 12 | 204 | 17.7 | 25.7 | 0.00 | 0.05 | 0.00 | 95 | 1031.4 |
| 20260508184522 | 12 | 223 | 14.5 | 19.3 | 0.00 | 0.05 | 0.00 | 95 | 1031.4 |
| 20260508183545 | 12 | 221 | 14.5 | 20.9 | 0.00 | 0.05 | 0.00 | 95 | 1031.4 |
| 20260508182532 | 12 | 216 | 16.1 | 19.3 | 0.00 | 0.05 | 0.00 | 95 | 1031.5 |
| 20260508181544 | 12 | 213 | 12.9 | 17.7 | 0.00 | 0.05 | 0.00 | 95 | 1031.5 |
| 20260508180544 | 12 | 211 | 14.5 | 17.7 | 0.00 | 0.05 | 0.00 | 95 | 1031.5 |
| 20260508175608 | 12 | 211 | 16.1 | 19.3 | 0.00 | 0.05 | 0.00 | 95 | 1031.5 |
| 20260508174544 | 12 | 218 | 14.5 | 22.5 | 0.00 | 0.05 | 0.00 | 94 | 1031.5 |
| 20260508173542 | 12 | 217 | 14.5 | 20.9 | 0.00 | 0.05 | 0.00 | 94 | 1031.7 |
| 20260508172604 | 12 | 210 | 16.1 | 17.7 | 0.00 | 0.05 | 0.00 | 94 | 1031.7 |
| 20260508171532 | 12 | 214 | 17.7 | 22.5 | 0.00 | 0.05 | 0.00 | 93 | 1031.7 |
| 20260508170544 | 13 | 207 | 14.5 | 19.3 | 0.00 | 0.05 | 0.00 | 93 | 1031.7 |
| 20260508165544 | 13 | 202 | 11.3 | 14.5 | 0.00 | 0.05 | 0.00 | 93 | 1031.8 |
| 20260508164604 | 13 | 219 | 16.1 | 19.3 | 0.00 | 0.05 | 0.00 | 93 | 1031.8 |
| 20260508163544 | 13 | 208 | 14.5 | 17.7 | 0.00 | 0.05 | 0.00 | 93 | 1031.8 |
| 20260508162522 | 13 | 207 | 12.9 | 16.1 | 0.00 | 0.05 | 0.00 | 93 | 1031.8 |
| 20260508161556 | 13 | 224 | 6.4 | 9.7 | 0.00 | 0.05 | 0.00 | 93 | 1031.9 |
| 20260508160532 | 13 | 217 | 11.3 | 14.5 | 0.00 | 0.05 | 0.00 | 93 | 1032.0 |
| 20260508155545 | 13 | 206 | 14.5 | 19.3 | 0.00 | 0.05 | 0.00 | 93 | 1031.9 |
| 20260508154544 | 13 | 211 | 14.5 | 17.7 | 0.00 | 0.05 | 0.00 | 93 | 1031.9 |
| 20260508153556 | 13 | 212 | 16.1 | 19.3 | 0.00 | 0.05 | 0.00 | 94 | 1031.9 |
| 20260508152556 | 12 | 215 | 16.1 | 19.3 | 0.00 | 0.05 | 0.00 | 94 | 1031.9 |
| 20260508151522 | 12 | 225 | 14.5 | 17.7 | 0.00 | 0.05 | 0.00 | 94 | 1031.9 |
| 20260508150556 | 12 | 223 | 11.3 | 14.5 | 0.00 | 0.05 | 0.00 | 94 | 1032.0 |
| 20260508145532 | 13 | 229 | 9.7 | 14.5 | 0.00 | 0.05 | 0.00 | 95 | 1032.0 |
| 20260508144557 | 13 | 218 | 11.3 | 14.5 | 0.00 | 0.05 | 0.00 | 95 | 1032.0 |
| 20260508143605 | 13 | 213 | 11.3 | 14.5 | 0.00 | 0.05 | 0.00 | 94 | 1032.1 |
| 20260508142556 | 13 | 208 | 17.7 | 20.9 | 0.00 | 0.05 | 0.05 | 94 | 1032.1 |
| 20260508141556 | 13 | 212 | 16.1 | 20.9 | 0.00 | 0.05 | 0.05 | 94 | 1032.2 |
| 20260508140522 | 13 | 212 | 14.5 | 17.7 | 0.05 | 0.05 | 0.05 | 94 | 1032.3 |
| 20260508135556 | 13 | 204 | 14.5 | 17.7 | 0.05 | 0.05 | 0.05 | 94 | 1032.3 |
| 20260508134552 | 13 | 205 | 11.3 | 17.7 | 0.05 | 0.05 | 0.05 | 94 | 1032.4 |
| 20260508133556 | 13 | 196 | 17.7 | 22.5 | 0.05 | 0.05 | 0.05 | 94 | 1032.5 |
| 20260508132544 | 13 | 206 | 25.7 | 35.4 | 0.05 | 0.05 | 0.05 | 94 | 1032.5 |
| 20260508131556 | 13 | 209 | 24.1 | 32.2 | 0.05 | 0.05 | 0.05 | 93 | 1032.5 |
| 20260508130556 | 13 | 203 | 19.3 | 27.4 | 0.00 | 0.00 | 0.00 | 93 | 1032.5 |
| 20260508125542 | 13 | 208 | 9.7 | 11.3 | 0.00 | 0.00 | 0.00 | 93 | 1032.6 |
| 20260508124556 | 13 | 204 | 14.5 | 17.7 | 0.00 | 0.00 | 0.00 | 93 | 1032.6 |
| 20260508123532 | 13 | 204 | 17.7 | 25.7 | 0.00 | 0.00 | 0.00 | 93 | 1032.6 |
| 20260508122556 | 13 | 202 | 14.5 | 17.7 | 0.00 | 0.00 | 0.00 | 93 | 1032.6 |
| 20260508121544 | 13 | 202 | 9.7 | 16.1 | 0.00 | 0.00 | 0.00 | 92 | 1032.6 |
| 20260508120556 | 14 | 202 | 11.3 | 14.5 | 0.00 | 0.00 | 0.00 | 92 | 1032.7 |
| 20260508115556 | 14 | 199 | 14.5 | 17.7 | 0.00 | 0.00 | 0.00 | 90 | 1032.7 |
| 20260508114522 | 14 | 191 | 20.9 | 24.1 | 0.00 | 0.00 | 0.00 | 87 | 1032.7 |
| 20260508113556 | 14 | 211 | 17.7 | 20.9 | 0.00 | 0.00 | 0.00 | 86 | 1032.6 |
| 20260508112532 | 14 | 202 | 12.9 | 14.5 | 0.00 | 0.00 | 0.00 | 85 | 1032.4 |
| 20260508111556 | 14 | 209 | 14.5 | 17.7 | 0.00 | 0.00 | 0.00 | 84 | 1032.4 |
| 20260508110604 | 15 | 206 | 8.0 | 14.5 | 0.00 | 0.00 | 0.00 | 84 | 1032.4 |
| 20260508105556 | 15 | 202 | 6.4 | 11.3 | 0.00 | 0.00 | 0.00 | 83 | 1032.4 |
| 20260508104556 | 15 | 196 | 11.3 | 17.7 | 0.00 | 0.00 | 0.00 | 83 | 1032.5 |
| 20260508103522 | 15 | 199 | 16.1 | 24.1 | 0.00 | 0.00 | 0.00 | 83 | 1032.5 |
| 20260508102556 | 15 | 200 | 17.7 | 20.9 | 0.00 | 0.00 | 0.00 | 82 | 1032.4 |
| 20260508101532 | 15 | 202 | 17.7 | 19.3 | 0.00 | 0.00 | 0.00 | 82 | 1032.3 |
| 20260508100636 | 15 | 200 | 16.1 | 19.3 | 0.00 | 0.00 | 0.00 | 81 | 1032.2 |
| 20260508095544 | 15 | 210 | 19.3 | 24.1 | 0.00 | 0.00 | 0.00 | 80 | 1032.2 |
| 20260508094556 | 15 | 211 | 16.1 | 19.3 | 0.00 | 0.00 | 0.00 | 80 | 1032.2 |
| 20260508093556 | 15 | 198 | 14.5 | 16.1 | 0.00 | 0.00 | 0.00 | 80 | 1032.2 |
| 20260508092522 | 15 | 191 | 17.7 | 22.5 | 0.00 | 0.00 | 0.00 | 80 | 1032.1 |
| 20260508091556 | 15 | 202 | 14.5 | 17.7 | 0.00 | 0.00 | 0.00 | 82 | 1032.1 |
| 20260508090532 | 15 | 202 | 9.7 | 14.5 | 0.00 | 0.00 | 0.00 | 83 | 1032.1 |
| 20260508085555 | 15 | 188 | 11.3 | 17.7 | 0.00 | 0.00 | 0.00 | 82 | 1032.0 |
| 20260508084544 | 15 | 178 | 16.1 | 17.7 | 0.00 | 0.00 | 0.00 | 83 | 1031.9 |
| 20260508083556 | 15 | 172 | 16.1 | 20.9 | 0.00 | 0.00 | 0.00 | 84 | 1031.9 |
| 20260508082556 | 15 | 179 | 9.7 | 14.5 | 0.00 | 0.00 | 0.00 | 83 | 1031.9 |
| 20260508081522 | 14 | 202 | 8.0 | 17.7 | 0.00 | 0.00 | 0.00 | 84 | 1031.9 |
| 20260508080616 | 14 | 202 | 1.6 | 8.0 | 0.00 | 0.00 | 0.00 | 84 | 1031.8 |
| 20260508075532 | 15 | 202 | 0.0 | 4.8 | 0.00 | 0.00 | 0.00 | 82 | 1031.7 |
| 20260508074556 | 15 | 202 | 6.4 | 8.0 | 0.00 | 0.00 | 0.00 | 81 | 1031.6 |
| 20260508073544 | 15 | 202 | 4.8 | 8.0 | 0.00 | 0.00 | 0.00 | 80 | 1031.6 |
| 20260508072608 | 16 | 198 | 8.0 | 12.9 | 0.00 | 0.00 | 0.00 | 79 | 1031.6 |
| 20260508071556 | 16 | 191 | 12.9 | 16.1 | 0.00 | 0.00 | 0.00 | 78 | 1031.6 |
| 20260508070522 | 16 | 188 | 16.1 | 19.3 | 0.00 | 0.00 | 0.00 | 79 | 1031.6 |
| 20260508065556 | 16 | 181 | 22.5 | 37.0 | 0.00 | 0.00 | 0.00 | 79 | 1031.7 |
| 20260508064532 | 16 | 177 | 25.7 | 33.8 | 0.00 | 0.00 | 0.00 | 81 | 1031.7 |
| 20260508063555 | 16 | 171 | 19.3 | 22.5 | 0.00 | 0.00 | 0.00 | 82 | 1031.7 |
| 20260508062544 | 16 | 182 | 14.5 | 19.3 | 0.00 | 0.00 | 0.00 | 82 | 1031.8 |
| 20260508061556 | 16 | 166 | 24.1 | 29.0 | 0.00 | 0.00 | 0.00 | 81 | 1031.7 |
| 20260508060616 | 16 | 150 | 17.7 | 22.5 | 0.00 | 0.00 | 0.00 | 79 | 1031.7 |
| 20260508055525 | 17 | 172 | 19.3 | 25.7 | 0.00 | 0.00 | 0.00 | 78 | 1031.7 |
| 20260508054555 | 17 | 160 | 17.7 | 20.9 | 0.00 | 0.00 | 0.00 | 76 | 1031.7 |
| 20260508053533 | 17 | 174 | 14.5 | 20.9 | 0.00 | 0.00 | 0.00 | 74 | 1031.7 |
| 20260508052556 | 17 | 153 | 19.3 | 27.4 | 0.00 | 0.00 | 0.00 | 77 | 1031.7 |
| 20260508051544 | 16 | 166 | 17.7 | 24.1 | 0.00 | 0.00 | 0.00 | 76 | 1031.8 |
| 20260508050555 | 16 | 146 | 14.5 | 16.1 | 0.00 | 0.00 | 0.00 | 76 | 1031.8 |
| 20260508045556 | 17 | 158 | 16.1 | 22.5 | 0.00 | 0.00 | 0.00 | 74 | 1031.8 |
| 20260508044522 | 17 | 176 | 16.1 | 25.7 | 0.00 | 0.00 | 0.00 | 71 | 1031.8 |
| 20260508043616 | 17 | 180 | 16.1 | 19.3 | 0.00 | 0.00 | 0.00 | 69 | 1031.9 |
| 20260508042533 | 17 | 187 | 14.5 | 17.7 | 0.00 | 0.00 | 0.00 | 67 | 1031.8 |
| 20260508041556 | 17 | 193 | 20.9 | 24.1 | 0.00 | 0.00 | 0.00 | 70 | 1031.9 |
| 20260508040544 | 17 | 161 | 19.3 | 20.9 | 0.00 | 0.00 | 0.00 | 70 | 1032.1 |
| 20260508035616 | 17 | 176 | 19.3 | 25.7 | 0.00 | 0.00 | 0.00 | 69 | 1032.1 |
| 20260508034555 | 17 | 184 | 16.1 | 20.9 | 0.00 | 0.00 | 0.00 | 69 | 1032.3 |
| 20260508033522 | 17 | 206 | 14.5 | 19.3 | 0.00 | 0.00 | 0.00 | 69 | 1032.4 |
| 20260508032555 | 17 | 214 | 14.5 | 17.7 | 0.00 | 0.00 | 0.00 | 69 | 1032.5 |
| 20260508031533 | 16 | 200 | 16.1 | 20.9 | 0.00 | 0.00 | 0.00 | 70 | 1032.6 |
| 20260508030616 | 16 | 179 | 16.1 | 20.9 | 0.00 | 0.00 | 0.00 | 70 | 1032.8 |
| 20260508025604 | 16 | 177 | 20.9 | 25.7 | 0.00 | 0.00 | 0.00 | 69 | 1033.0 |
| 20260508024615 | 16 | 179 | 19.3 | 24.1 | 0.00 | 0.00 | 0.00 | 69 | 1033.2 |
| 20260508023555 | 16 | 183 | 19.3 | 24.1 | 0.00 | 0.00 | 0.00 | 70 | 1033.4 |
| 20260508022522 | 16 | 179 | 20.9 | 24.1 | 0.00 | 0.00 | 0.00 | 69 | 1033.5 |
| 20260508021555 | 16 | 181 | 17.7 | 25.7 | 0.00 | 0.00 | 0.00 | 69 | 1033.6 |
| 20260508020532 | 15 | 200 | 20.9 | 27.4 | 0.00 | 0.00 | 0.00 | 69 | 1033.8 |
| 20260508015556 | 15 | 176 | 22.5 | 25.7 | 0.00 | 0.00 | 0.00 | 72 | 1033.9 |
| 20260508014544 | 15 | 195 | 22.5 | 25.7 | 0.00 | 0.00 | 0.00 | 72 | 1034.0 |
| 20260508013555 | 15 | 197 | 17.7 | 22.5 | 0.00 | 0.00 | 0.00 | 71 | 1034.0 |
| 20260508012556 | 15 | 190 | 17.7 | 22.5 | 0.00 | 0.00 | 0.00 | 71 | 1034.1 |
| 20260508011522 | 15 | 191 | 17.7 | 24.1 | 0.00 | 0.00 | 0.00 | 71 | 1034.1 |
| 20260508010615 | 15 | 194 | 22.5 | 25.7 | 0.00 | 0.00 | 0.00 | 71 | 1034.1 |
| 20260508005533 | 15 | 210 | 17.7 | 20.9 | 0.00 | 0.00 | 0.00 | 70 | 1034.1 |
| 20260508004556 | 15 | 205 | 17.7 | 22.5 | 0.00 | 0.00 | 0.00 | 70 | 1034.1 |
| 20260508003544 | 15 | 213 | 20.9 | 22.5 | 0.00 | 0.00 | 0.00 | 70 | 1034.2 |
| 20260508002555 | 15 | 210 | 20.9 | 22.5 | 0.00 | 0.00 | 0.00 | 71 | 1034.2 |
| 20260508001555 | 15 | 201 | 19.3 | 22.5 | 0.00 | 0.00 | 0.00 | 72 | 1034.2 |